createdAt,value
2023-03-12T00:01:28.134Z,48.02
2023-03-12T00:06:28.145Z,47.88
2023-03-12T00:11:28.144Z,47.82
2023-03-12T00:16:28.194Z,47.59
2023-03-12T00:21:28.146Z,47.61
2023-03-12T00:26:28.135Z,47.67
2023-03-12T00:31:28.145Z,47.7
2023-03-12T00:36:28.135Z,47.42
2023-03-12T00:41:28.145Z,47.35
2023-03-12T00:46:28.145Z,47.27
2023-03-12T00:51:28.136Z,47.36
2023-03-12T00:56:28.146Z,47.43
2023-03-12T01:01:28.136Z,47.52
2023-03-12T01:06:28.147Z,47.62
2023-03-12T01:11:28.146Z,47.58
2023-03-12T01:16:28.147Z,47.37
2023-03-12T01:21:28.147Z,47.45
2023-03-12T01:26:28.136Z,47.23
2023-03-12T01:31:28.147Z,47.38
2023-03-12T01:36:28.136Z,47.36
2023-03-12T01:41:28.148Z,47.21
2023-03-12T01:46:28.147Z,47.31
2023-03-12T01:51:37.396Z,47.26
2023-03-12T01:56:28.147Z,47.38
2023-03-12T02:01:28.137Z,47.28
2023-03-12T02:06:28.147Z,47.15
2023-03-12T02:11:28.147Z,46.96
2023-03-12T02:16:28.148Z,46.54
2023-03-12T02:21:28.147Z,46.49
2023-03-12T02:26:28.137Z,46.16
2023-03-12T02:31:28.212Z,46.2
2023-03-12T02:36:28.138Z,45.99
2023-03-12T02:41:28.156Z,45.83
2023-03-12T02:46:28.149Z,45.97
2023-03-12T02:51:28.149Z,46.02
2023-03-12T02:56:28.149Z,45.93
2023-03-12T03:01:28.138Z,46.42
2023-03-12T03:06:28.149Z,46.68
2023-03-12T03:11:28.138Z,46.55
2023-03-12T03:16:28.149Z,46.36
2023-03-12T03:21:28.149Z,46.49
2023-03-12T03:26:28.139Z,46.29
2023-03-12T03:31:28.150Z,46.14
2023-03-12T03:36:28.139Z,46.28
2023-03-12T03:41:28.150Z,46.26
2023-03-12T03:46:28.149Z,46.18
2023-03-12T03:51:28.151Z,46.42
2023-03-12T03:56:28.150Z,46.67
2023-03-12T04:01:28.140Z,46.99
2023-03-12T04:06:28.150Z,47.05
2023-03-12T04:11:28.140Z,46.38
2023-03-12T04:16:28.150Z,46.01
2023-03-12T04:21:28.150Z,46.15
2023-03-12T04:26:28.140Z,46.06
2023-03-12T04:31:28.150Z,46.23
2023-03-12T04:36:28.140Z,46.45
2023-03-12T04:41:28.151Z,46.36
2023-03-12T04:46:28.141Z,46.47
2023-03-12T04:51:28.152Z,46.51
2023-03-12T04:56:28.152Z,46.26
2023-03-12T05:01:28.141Z,45.89
2023-03-12T05:06:28.218Z,45.98
2023-03-12T05:11:28.141Z,45.77
2023-03-12T05:16:28.160Z,45.72
2023-03-12T05:21:28.153Z,45.55
2023-03-12T05:26:28.153Z,45.38
2023-03-12T05:31:28.153Z,45.74
2023-03-12T05:36:28.142Z,45.46
2023-03-12T05:41:28.153Z,45.34
2023-03-12T05:46:28.143Z,45.57
2023-03-12T05:51:28.153Z,45.58
2023-03-12T06:01:28.143Z,45.09
2023-03-12T06:06:28.154Z,44.82
2023-03-12T06:11:28.144Z,44.86
2023-03-12T06:16:28.154Z,44.79
2023-03-12T06:21:28.155Z,44.74
2023-03-12T06:26:28.156Z,44.74
2023-03-12T06:31:28.156Z,45.16
2023-03-12T06:36:28.145Z,45.43
2023-03-12T06:41:28.156Z,45.49
2023-03-12T06:46:28.146Z,44.97
2023-03-12T06:51:28.156Z,45.28
2023-03-12T06:56:28.157Z,45.14
2023-03-12T07:01:28.147Z,44.84
2023-03-12T07:06:28.158Z,44.5
2023-03-12T07:11:28.157Z,44.48
2023-03-12T07:16:28.158Z,44.1
2023-03-12T07:21:28.148Z,44
2023-03-12T07:26:28.160Z,43.98
2023-03-12T07:31:28.159Z,43.78
2023-03-12T07:36:28.150Z,43.88
2023-03-12T07:41:28.160Z,43.81
2023-03-12T07:46:28.150Z,43.68
2023-03-12T07:51:28.161Z,43.73
2023-03-12T07:56:28.162Z,43.22
2023-03-12T08:01:28.163Z,42.9
2023-03-12T08:06:28.162Z,43.7
2023-03-12T08:11:28.153Z,44.01
2023-03-12T08:16:28.164Z,43.7
2023-03-12T08:21:28.154Z,42.89
2023-03-12T08:26:28.166Z,42.29
2023-03-12T08:31:28.165Z,41.64
2023-03-12T08:36:28.156Z,41.72
2023-03-12T08:41:28.168Z,42.77
2023-03-12T08:46:28.158Z,42.24
2023-03-12T08:51:28.169Z,39.35
2023-03-12T08:56:28.170Z,40.42
2023-03-12T09:01:28.172Z,42.23
2023-03-12T09:06:28.172Z,43.67
2023-03-12T09:11:28.162Z,44.18
2023-03-12T09:16:28.174Z,44.22
2023-03-12T09:21:28.164Z,44.52
2023-03-12T09:26:28.182Z,44.46
2023-03-12T09:31:37.437Z,44.84
2023-03-12T09:36:28.166Z,44.5
2023-03-12T09:41:28.178Z,44.02
2023-03-12T09:46:28.168Z,44.38
2023-03-12T09:51:28.180Z,44.17
2023-03-12T09:56:28.181Z,44.14
2023-03-12T10:01:28.183Z,44.55
2023-03-12T10:06:28.184Z,44.14
2023-03-12T10:11:28.173Z,44.3
2023-03-12T10:16:28.186Z,43.38
2023-03-12T10:21:28.176Z,43.89
2023-03-12T10:26:28.187Z,45
2023-03-12T10:31:28.188Z,45.73
2023-03-12T10:36:28.189Z,46.1
2023-03-12T10:41:28.191Z,46.64
2023-03-12T10:46:28.181Z,46.46
2023-03-12T10:51:28.192Z,46.52
2023-03-12T10:56:28.182Z,45.81
2023-03-12T11:01:28.195Z,45.96
2023-03-12T11:06:28.194Z,45.78
2023-03-12T11:11:28.185Z,45.96
2023-03-12T11:16:28.197Z,45.96
2023-03-12T11:21:28.187Z,45.79
2023-03-12T11:26:28.198Z,45.27
2023-03-12T11:31:28.200Z,44.75
2023-03-12T11:36:28.201Z,45.28
2023-03-12T11:41:28.265Z,45.16
2023-03-12T11:46:28.192Z,44.9
2023-03-12T11:51:28.246Z,45.05
2023-03-12T11:56:28.194Z,45.57
2023-03-12T12:01:28.206Z,46.54
2023-03-12T12:06:28.206Z,46.91
2023-03-12T12:11:28.209Z,47.05
2023-03-12T12:16:28.209Z,47.45
2023-03-12T12:21:28.200Z,46.94
2023-03-12T12:26:28.212Z,46.53
2023-03-12T12:31:28.201Z,45.3
2023-03-12T12:36:28.213Z,44.96
2023-03-12T12:41:28.214Z,45.57
2023-03-12T12:46:28.205Z,45.1
2023-03-12T12:51:28.216Z,44.97
2023-03-12T12:56:28.207Z,44.86
2023-03-12T13:01:28.219Z,44.14
2023-03-12T13:06:28.219Z,44.89
2023-03-12T13:11:28.222Z,45.49
2023-03-12T13:16:28.222Z,45.86
2023-03-12T13:21:28.213Z,45.35
2023-03-12T13:26:28.224Z,45.85
2023-03-12T13:31:28.215Z,46.04
2023-03-12T13:36:28.228Z,46.06
2023-03-12T13:41:28.228Z,45.15
2023-03-12T13:46:28.218Z,43.9
2023-03-12T13:51:28.232Z,41.97
2023-03-12T13:56:28.222Z,43.09
2023-03-12T14:01:28.234Z,42.79
2023-03-12T14:06:28.235Z,41.03
2023-03-12T14:11:28.238Z,43.88
2023-03-12T14:16:28.238Z,45.52
2023-03-12T14:21:28.230Z,45.46
2023-03-12T14:26:28.293Z,45.88
2023-03-12T14:31:28.233Z,46.26
2023-03-12T14:36:28.244Z,45.6
2023-03-12T14:41:28.246Z,42.17
2023-03-12T14:46:28.248Z,43.77
2023-03-12T14:51:28.249Z,46.26
2023-03-12T14:56:28.241Z,46.68
2023-03-12T15:01:28.253Z,48
2023-03-12T15:06:28.242Z,47.75
2023-03-12T15:11:28.256Z,47.84
2023-03-12T15:16:28.257Z,47.89
2023-03-12T15:21:28.248Z,48.31
2023-03-12T15:26:28.259Z,47.97
2023-03-12T15:31:28.251Z,49.47
2023-03-12T15:36:28.263Z,49.37
2023-03-12T15:41:28.263Z,49.4
2023-03-12T15:46:28.265Z,49.81
2023-03-12T15:51:28.266Z,50.22
2023-03-12T15:56:28.257Z,49.73
2023-03-12T16:01:28.269Z,49.91
2023-03-12T16:06:28.260Z,49.49
2023-03-12T16:11:28.272Z,49.08
2023-03-12T16:16:28.274Z,48.9
2023-03-12T16:21:28.264Z,48.74
2023-03-12T16:26:28.275Z,48.77
2023-03-12T16:31:28.266Z,49.29
2023-03-12T16:36:28.278Z,49.33
2023-03-12T16:41:28.269Z,48.99
2023-03-12T16:46:28.281Z,48.96
2023-03-12T16:51:28.282Z,48.84
2023-03-12T16:56:28.272Z,48.81
2023-03-12T17:06:28.275Z,48.66
2023-03-12T17:11:37.547Z,48.55
2023-03-12T17:16:28.288Z,48.6
2023-03-12T17:21:28.337Z,48.35
2023-03-12T17:26:28.291Z,48.29
2023-03-12T17:31:28.281Z,48.04
2023-03-12T17:36:28.293Z,48.25
2023-03-12T17:41:28.284Z,48.36
2023-03-12T17:46:28.295Z,48.52
2023-03-12T17:51:28.297Z,47.92
2023-03-12T17:56:28.287Z,47.88
2023-03-12T18:01:28.299Z,47.87
2023-03-12T18:06:28.290Z,47.73
2023-03-12T18:11:28.302Z,47.7
2023-03-12T18:16:28.303Z,47.64
2023-03-12T18:21:28.305Z,47.66
2023-03-12T18:26:28.306Z,47.88
2023-03-12T18:31:28.296Z,48.35
2023-03-12T18:36:28.307Z,48.31
2023-03-12T18:41:28.299Z,48.56
2023-03-12T18:46:28.310Z,48.71
2023-03-12T18:51:28.311Z,48.49
2023-03-12T18:56:28.302Z,48.35
2023-03-12T19:01:28.314Z,48.13
2023-03-12T19:06:28.304Z,47.95
2023-03-12T19:11:28.315Z,47.62
2023-03-12T19:16:28.318Z,47.58
2023-03-12T19:21:28.319Z,47.63
2023-03-12T19:26:28.320Z,47.45
2023-03-12T19:31:28.310Z,47.15
2023-03-12T19:36:28.371Z,46.76
2023-03-12T19:41:28.312Z,46.75
2023-03-12T19:46:28.323Z,46.39
2023-03-12T19:51:28.325Z,46.65
2023-03-12T19:56:28.374Z,46.67
2023-03-12T20:01:28.328Z,46.71
2023-03-12T20:06:28.318Z,46.77
2023-03-12T20:11:28.329Z,46.58
2023-03-12T20:16:28.320Z,46.87
2023-03-12T20:21:28.333Z,46.77
2023-03-12T20:26:28.334Z,47.05
2023-03-12T20:31:28.324Z,47.01
2023-03-12T20:36:28.336Z,47.12
2023-03-12T20:41:28.326Z,47.02
2023-03-12T20:46:28.338Z,47.09
2023-03-12T20:51:28.339Z,47.09
2023-03-12T20:56:28.341Z,47.23
2023-03-12T21:01:28.342Z,47.43
2023-03-12T21:06:28.332Z,47.33
2023-03-12T21:11:28.344Z,47.33
2023-03-12T21:16:28.335Z,47.4
2023-03-12T21:21:28.347Z,47.58
2023-03-12T21:26:28.347Z,47.51
2023-03-12T21:31:28.338Z,47.46
2023-03-12T21:36:28.349Z,47.38
2023-03-12T21:41:28.341Z,47.53
2023-03-12T21:46:28.352Z,47.36
2023-03-12T21:51:28.342Z,47.77
2023-03-12T21:56:28.354Z,47.62
2023-03-12T22:01:28.356Z,47.8
2023-03-12T22:06:28.347Z,47.85
2023-03-12T22:11:28.384Z,47.78
2023-03-12T22:16:28.349Z,47.72
2023-03-12T22:21:28.361Z,47.87
2023-03-12T22:26:28.361Z,47.77
2023-03-12T22:31:28.364Z,47.83
2023-03-12T22:36:28.364Z,48.1
2023-03-12T22:41:28.355Z,48.08
2023-03-12T22:46:28.366Z,47.98
2023-03-12T22:51:28.356Z,48.15
2023-03-12T22:56:28.370Z,48.15
2023-03-12T23:01:28.370Z,48.16
2023-03-12T23:06:28.361Z,48.34
2023-03-12T23:11:28.372Z,48.25
2023-03-12T23:16:28.363Z,48.21
2023-03-12T23:21:28.374Z,48.4
2023-03-12T23:26:28.375Z,48.2
2023-03-12T23:31:28.378Z,48.25
2023-03-12T23:36:28.379Z,48.31
2023-03-12T23:41:28.368Z,48.12
2023-03-12T23:46:28.381Z,48.07
2023-03-12T23:51:28.371Z,47.86
2023-03-12T23:56:28.383Z,47.57
